sensor_id;sensor_type;location;lat;lon;timestamp;P1;durP1;ratioP1;P2;durP2;ratioP2
20709;SDS011;10516;51.518;9.864;2022-11-25T00:00:08;11.75;;;3.90;;
20709;SDS011;10516;51.518;9.864;2022-11-25T00:02:34;8.85;;;3.40;;
20709;SDS011;10516;51.518;9.864;2022-11-25T00:04:59;13.63;;;4.05;;
20709;SDS011;10516;51.518;9.864;2022-11-25T00:07:25;12.82;;;4.05;;
20709;SDS011;10516;51.518;9.864;2022-11-25T00:09:50;8.98;;;3.55;;
20709;SDS011;10516;51.518;9.864;2022-11-25T00:12:15;9.63;;;4.28;;
20709;SDS011;10516;51.518;9.864;2022-11-25T00:14:42;8.45;;;3.42;;
20709;SDS011;10516;51.518;9.864;2022-11-25T00:17:08;16.58;;;5.78;;
20709;SDS011;10516;51.518;9.864;2022-11-25T00:19:33;13.20;;;3.63;;
20709;SDS011;10516;51.518;9.864;2022-11-25T00:21:59;15.32;;;4.07;;
20709;SDS011;10516;51.518;9.864;2022-11-25T00:24:24;13.38;;;4.90;;
20709;SDS011;10516;51.518;9.864;2022-11-25T00:26:49;10.25;;;3.80;;
20709;SDS011;10516;51.518;9.864;2022-11-25T00:29:15;7.07;;;3.47;;
20709;SDS011;10516;51.518;9.864;2022-11-25T00:31:41;10.63;;;3.53;;
20709;SDS011;10516;51.518;9.864;2022-11-25T00:34:10;10.15;;;3.67;;
20709;SDS011;10516;51.518;9.864;2022-11-25T00:36:37;9.90;;;3.70;;
20709;SDS011;10516;51.518;9.864;2022-11-25T00:39:04;13.45;;;3.50;;
20709;SDS011;10516;51.518;9.864;2022-11-25T00:41:32;5.80;;;3.42;;
20709;SDS011;10516;51.518;9.864;2022-11-25T00:44:16;6.50;;;2.97;;
20709;SDS011;10516;51.518;9.864;2022-11-25T00:47:12;7.00;;;3.17;;
20709;SDS011;10516;51.518;9.864;2022-11-25T00:49:43;10.40;;;3.53;;
20709;SDS011;10516;51.518;9.864;2022-11-25T00:52:13;12.98;;;4.10;;
20709;SDS011;10516;51.518;9.864;2022-11-25T00:54:40;10.48;;;3.05;;
20709;SDS011;10516;51.518;9.864;2022-11-25T00:57:05;8.60;;;3.40;;
20709;SDS011;10516;51.518;9.864;2022-11-25T00:59:31;10.02;;;4.03;;
20709;SDS011;10516;51.518;9.864;2022-11-25T01:01:56;9.98;;;4.35;;
20709;SDS011;10516;51.518;9.864;2022-11-25T01:04:21;15.85;;;4.80;;
20709;SDS011;10516;51.518;9.864;2022-11-25T01:06:47;10.77;;;3.63;;
20709;SDS011;10516;51.518;9.864;2022-11-25T01:09:12;8.05;;;3.72;;
20709;SDS011;10516;51.518;9.864;2022-11-25T01:11:38;13.68;;;4.47;;
20709;SDS011;10516;51.518;9.864;2022-11-25T01:14:04;14.05;;;3.67;;
20709;SDS011;10516;51.518;9.864;2022-11-25T01:16:30;11.75;;;3.47;;
20709;SDS011;10516;51.518;9.864;2022-11-25T01:18:56;8.27;;;3.20;;
20709;SDS011;10516;51.518;9.864;2022-11-25T01:21:26;9.50;;;4.32;;
20709;SDS011;10516;51.518;9.864;2022-11-25T01:23:53;9.75;;;3.97;;
20709;SDS011;10516;51.518;9.864;2022-11-25T01:26:20;14.25;;;3.70;;
20709;SDS011;10516;51.518;9.864;2022-11-25T01:28:48;9.25;;;3.35;;
20709;SDS011;10516;51.518;9.864;2022-11-25T01:31:20;7.38;;;3.17;;
20709;SDS011;10516;51.518;9.864;2022-11-25T01:33:51;11.63;;;4.25;;
20709;SDS011;10516;51.518;9.864;2022-11-25T01:36:21;13.18;;;4.05;;
20709;SDS011;10516;51.518;9.864;2022-11-25T01:38:48;15.55;;;3.17;;
20709;SDS011;10516;51.518;9.864;2022-11-25T01:41:15;7.88;;;3.60;;
20709;SDS011;10516;51.518;9.864;2022-11-25T01:43:41;9.20;;;3.45;;
20709;SDS011;10516;51.518;9.864;2022-11-25T01:48:48;9.75;;;3.90;;
20709;SDS011;10516;51.518;9.864;2022-11-25T01:53:56;8.43;;;3.42;;
20709;SDS011;10516;51.518;9.864;2022-11-25T01:56:26;8.23;;;3.53;;
20709;SDS011;10516;51.518;9.864;2022-11-25T01:58:57;6.63;;;3.53;;
20709;SDS011;10516;51.518;9.864;2022-11-25T02:01:23;9.38;;;3.80;;
20709;SDS011;10516;51.518;9.864;2022-11-25T02:03:49;11.13;;;4.47;;
20709;SDS011;10516;51.518;9.864;2022-11-25T02:06:22;15.05;;;3.33;;
20709;SDS011;10516;51.518;9.864;2022-11-25T02:09:04;6.30;;;4.07;;
20709;SDS011;10516;51.518;9.864;2022-11-25T02:11:32;12.30;;;3.47;;
20709;SDS011;10516;51.518;9.864;2022-11-25T02:14:00;11.27;;;3.25;;
20709;SDS011;10516;51.518;9.864;2022-11-25T02:16:27;13.77;;;3.83;;
20709;SDS011;10516;51.518;9.864;2022-11-25T02:18:52;11.02;;;3.45;;
20709;SDS011;10516;51.518;9.864;2022-11-25T02:21:24;12.23;;;3.85;;
20709;SDS011;10516;51.518;9.864;2022-11-25T02:23:58;8.15;;;3.67;;
20709;SDS011;10516;51.518;9.864;2022-11-25T02:26:31;8.45;;;4.28;;
20709;SDS011;10516;51.518;9.864;2022-11-25T02:28:57;7.82;;;3.33;;
20709;SDS011;10516;51.518;9.864;2022-11-25T02:31:22;7.80;;;4.50;;
20709;SDS011;10516;51.518;9.864;2022-11-25T02:33:48;13.52;;;4.20;;
20709;SDS011;10516;51.518;9.864;2022-11-25T02:36:17;10.63;;;3.35;;
20709;SDS011;10516;51.518;9.864;2022-11-25T02:38:49;9.43;;;3.38;;
20709;SDS011;10516;51.518;9.864;2022-11-25T02:41:20;10.05;;;3.50;;
20709;SDS011;10516;51.518;9.864;2022-11-25T02:43:50;8.95;;;3.28;;
20709;SDS011;10516;51.518;9.864;2022-11-25T02:46:16;9.10;;;4.53;;
20709;SDS011;10516;51.518;9.864;2022-11-25T02:48:43;7.95;;;3.58;;
20709;SDS011;10516;51.518;9.864;2022-11-25T02:51:10;15.68;;;4.70;;
20709;SDS011;10516;51.518;9.864;2022-11-25T02:53:37;11.15;;;4.03;;
20709;SDS011;10516;51.518;9.864;2022-11-25T02:56:03;13.68;;;4.10;;
20709;SDS011;10516;51.518;9.864;2022-11-25T02:58:28;17.33;;;4.95;;
20709;SDS011;10516;51.518;9.864;2022-11-25T03:00:54;9.23;;;3.75;;
20709;SDS011;10516;51.518;9.864;2022-11-25T03:03:19;9.07;;;4.53;;
20709;SDS011;10516;51.518;9.864;2022-11-25T03:05:45;12.27;;;4.85;;
20709;SDS011;10516;51.518;9.864;2022-11-25T03:08:10;9.07;;;4.00;;
20709;SDS011;10516;51.518;9.864;2022-11-25T03:10:36;8.35;;;3.90;;
20709;SDS011;10516;51.518;9.864;2022-11-25T03:13:03;11.00;;;4.00;;
20709;SDS011;10516;51.518;9.864;2022-11-25T03:15:29;9.98;;;3.80;;
20709;SDS011;10516;51.518;9.864;2022-11-25T03:17:55;9.43;;;3.75;;
20709;SDS011;10516;51.518;9.864;2022-11-25T03:20:20;8.68;;;3.47;;
20709;SDS011;10516;51.518;9.864;2022-11-25T03:22:46;8.38;;;4.75;;
20709;SDS011;10516;51.518;9.864;2022-11-25T03:25:13;9.95;;;3.80;;
20709;SDS011;10516;51.518;9.864;2022-11-25T03:27:39;12.63;;;4.85;;
20709;SDS011;10516;51.518;9.864;2022-11-25T03:30:06;6.68;;;3.25;;
20709;SDS011;10516;51.518;9.864;2022-11-25T03:32:38;12.25;;;4.30;;
20709;SDS011;10516;51.518;9.864;2022-11-25T03:35:03;7.45;;;3.35;;
20709;SDS011;10516;51.518;9.864;2022-11-25T03:37:30;6.95;;;3.83;;
20709;SDS011;10516;51.518;9.864;2022-11-25T03:39:55;13.27;;;4.30;;
20709;SDS011;10516;51.518;9.864;2022-11-25T03:42:20;5.93;;;3.72;;
20709;SDS011;10516;51.518;9.864;2022-11-25T03:44:46;8.32;;;3.22;;
20709;SDS011;10516;51.518;9.864;2022-11-25T03:47:11;7.13;;;3.22;;
20709;SDS011;10516;51.518;9.864;2022-11-25T03:49:37;9.52;;;4.13;;
20709;SDS011;10516;51.518;9.864;2022-11-25T03:52:02;9.35;;;4.28;;
20709;SDS011;10516;51.518;9.864;2022-11-25T03:54:28;10.68;;;3.67;;
20709;SDS011;10516;51.518;9.864;2022-11-25T03:56:53;5.97;;;3.33;;
20709;SDS011;10516;51.518;9.864;2022-11-25T03:59:18;12.20;;;3.47;;
20709;SDS011;10516;51.518;9.864;2022-11-25T04:01:44;7.10;;;3.95;;
20709;SDS011;10516;51.518;9.864;2022-11-25T04:04:09;8.57;;;3.97;;
20709;SDS011;10516;51.518;9.864;2022-11-25T04:06:35;11.02;;;3.42;;
20709;SDS011;10516;51.518;9.864;2022-11-25T04:09:03;11.77;;;4.47;;
20709;SDS011;10516;51.518;9.864;2022-11-25T04:11:29;15.88;;;4.70;;
20709;SDS011;10516;51.518;9.864;2022-11-25T04:14:13;9.15;;;4.10;;
20709;SDS011;10516;51.518;9.864;2022-11-25T04:16:38;19.50;;;3.65;;
20709;SDS011;10516;51.518;9.864;2022-11-25T04:19:03;11.20;;;4.03;;
20709;SDS011;10516;51.518;9.864;2022-11-25T04:21:29;17.75;;;4.50;;
20709;SDS011;10516;51.518;9.864;2022-11-25T04:23:54;10.02;;;4.25;;
20709;SDS011;10516;51.518;9.864;2022-11-25T04:26:20;5.88;;;3.83;;
20709;SDS011;10516;51.518;9.864;2022-11-25T04:28:45;8.00;;;3.80;;
20709;SDS011;10516;51.518;9.864;2022-11-25T04:31:11;10.07;;;3.85;;
20709;SDS011;10516;51.518;9.864;2022-11-25T04:33:36;15.52;;;5.22;;
20709;SDS011;10516;51.518;9.864;2022-11-25T04:36:02;11.88;;;3.50;;
20709;SDS011;10516;51.518;9.864;2022-11-25T04:38:28;13.48;;;3.65;;
20709;SDS011;10516;51.518;9.864;2022-11-25T04:40:53;11.13;;;4.03;;
20709;SDS011;10516;51.518;9.864;2022-11-25T04:43:18;8.73;;;3.95;;
20709;SDS011;10516;51.518;9.864;2022-11-25T04:45:45;9.77;;;3.78;;
20709;SDS011;10516;51.518;9.864;2022-11-25T04:48:11;9.30;;;3.20;;
20709;SDS011;10516;51.518;9.864;2022-11-25T04:50:38;14.05;;;4.00;;
20709;SDS011;10516;51.518;9.864;2022-11-25T04:53:03;8.35;;;3.53;;
20709;SDS011;10516;51.518;9.864;2022-11-25T04:55:28;12.30;;;3.40;;
20709;SDS011;10516;51.518;9.864;2022-11-25T04:57:54;8.82;;;3.90;;
20709;SDS011;10516;51.518;9.864;2022-11-25T05:00:20;10.32;;;3.88;;
20709;SDS011;10516;51.518;9.864;2022-11-25T05:02:45;11.30;;;4.18;;
20709;SDS011;10516;51.518;9.864;2022-11-25T05:05:11;15.70;;;4.97;;
20709;SDS011;10516;51.518;9.864;2022-11-25T05:07:36;11.25;;;3.60;;
20709;SDS011;10516;51.518;9.864;2022-11-25T05:10:02;8.23;;;3.92;;
20709;SDS011;10516;51.518;9.864;2022-11-25T05:12:28;5.88;;;3.45;;
20709;SDS011;10516;51.518;9.864;2022-11-25T05:14:54;7.80;;;3.47;;
20709;SDS011;10516;51.518;9.864;2022-11-25T05:17:21;9.52;;;3.40;;
20709;SDS011;10516;51.518;9.864;2022-11-25T05:19:48;5.60;;;2.95;;
20709;SDS011;10516;51.518;9.864;2022-11-25T05:22:16;10.15;;;3.47;;
20709;SDS011;10516;51.518;9.864;2022-11-25T05:24:43;3.65;;;2.58;;
20709;SDS011;10516;51.518;9.864;2022-11-25T05:27:08;10.73;;;3.33;;
20709;SDS011;10516;51.518;9.864;2022-11-25T05:29:34;6.78;;;3.33;;
20709;SDS011;10516;51.518;9.864;2022-11-25T05:32:00;6.65;;;3.05;;
20709;SDS011;10516;51.518;9.864;2022-11-25T05:34:26;8.85;;;3.88;;
20709;SDS011;10516;51.518;9.864;2022-11-25T05:36:51;10.38;;;3.33;;
20709;SDS011;10516;51.518;9.864;2022-11-25T05:39:17;9.48;;;3.22;;
20709;SDS011;10516;51.518;9.864;2022-11-25T05:41:43;10.30;;;3.35;;
20709;SDS011;10516;51.518;9.864;2022-11-25T05:44:08;9.88;;;5.05;;
20709;SDS011;10516;51.518;9.864;2022-11-25T05:46:33;14.77;;;4.53;;
20709;SDS011;10516;51.518;9.864;2022-11-25T05:48:59;10.30;;;4.45;;
20709;SDS011;10516;51.518;9.864;2022-11-25T05:51:25;13.80;;;4.55;;
20709;SDS011;10516;51.518;9.864;2022-11-25T05:53:52;7.78;;;4.53;;
20709;SDS011;10516;51.518;9.864;2022-11-25T05:56:17;9.40;;;3.95;;
20709;SDS011;10516;51.518;9.864;2022-11-25T05:58:43;8.45;;;4.18;;
20709;SDS011;10516;51.518;9.864;2022-11-25T06:01:09;9.07;;;4.30;;
20709;SDS011;10516;51.518;9.864;2022-11-25T06:03:37;13.18;;;5.20;;
20709;SDS011;10516;51.518;9.864;2022-11-25T06:06:03;13.20;;;5.03;;
20709;SDS011;10516;51.518;9.864;2022-11-25T06:08:30;13.40;;;4.55;;
20709;SDS011;10516;51.518;9.864;2022-11-25T06:10:55;10.30;;;4.32;;
20709;SDS011;10516;51.518;9.864;2022-11-25T06:13:21;9.02;;;4.60;;
20709;SDS011;10516;51.518;9.864;2022-11-25T06:15:47;16.35;;;6.00;;
20709;SDS011;10516;51.518;9.864;2022-11-25T06:18:13;9.65;;;4.40;;
20709;SDS011;10516;51.518;9.864;2022-11-25T06:20:40;10.00;;;4.43;;
20709;SDS011;10516;51.518;9.864;2022-11-25T06:23:06;9.18;;;3.67;;
20709;SDS011;10516;51.518;9.864;2022-11-25T06:25:33;9.30;;;4.60;;
20709;SDS011;10516;51.518;9.864;2022-11-25T06:27:58;7.25;;;3.97;;
20709;SDS011;10516;51.518;9.864;2022-11-25T06:30:24;6.97;;;4.18;;
20709;SDS011;10516;51.518;9.864;2022-11-25T06:32:50;11.13;;;4.40;;
20709;SDS011;10516;51.518;9.864;2022-11-25T06:35:17;21.25;;;6.60;;
20709;SDS011;10516;51.518;9.864;2022-11-25T06:37:43;10.43;;;4.65;;
20709;SDS011;10516;51.518;9.864;2022-11-25T06:40:09;11.10;;;5.32;;
20709;SDS011;10516;51.518;9.864;2022-11-25T06:42:34;14.35;;;4.68;;
20709;SDS011;10516;51.518;9.864;2022-11-25T06:45:02;12.10;;;5.30;;
20709;SDS011;10516;51.518;9.864;2022-11-25T06:47:28;13.25;;;4.80;;
20709;SDS011;10516;51.518;9.864;2022-11-25T06:49:53;16.13;;;5.22;;
20709;SDS011;10516;51.518;9.864;2022-11-25T06:52:19;15.05;;;5.78;;
20709;SDS011;10516;51.518;9.864;2022-11-25T06:54:44;9.88;;;6.00;;
20709;SDS011;10516;51.518;9.864;2022-11-25T06:57:10;6.50;;;4.40;;
20709;SDS011;10516;51.518;9.864;2022-11-25T06:59:36;10.93;;;5.53;;
20709;SDS011;10516;51.518;9.864;2022-11-25T07:02:02;19.23;;;6.43;;
20709;SDS011;10516;51.518;9.864;2022-11-25T07:04:28;12.02;;;5.57;;
20709;SDS011;10516;51.518;9.864;2022-11-25T07:06:54;18.92;;;5.90;;
20709;SDS011;10516;51.518;9.864;2022-11-25T07:09:20;11.88;;;5.65;;
20709;SDS011;10516;51.518;9.864;2022-11-25T07:11:46;13.73;;;6.53;;
20709;SDS011;10516;51.518;9.864;2022-11-25T07:14:13;12.73;;;6.28;;
20709;SDS011;10516;51.518;9.864;2022-11-25T07:16:41;10.10;;;5.70;;
20709;SDS011;10516;51.518;9.864;2022-11-25T07:19:08;10.30;;;5.55;;
20709;SDS011;10516;51.518;9.864;2022-11-25T07:21:35;17.70;;;5.97;;
20709;SDS011;10516;51.518;9.864;2022-11-25T07:24:02;14.00;;;6.20;;
20709;SDS011;10516;51.518;9.864;2022-11-25T07:26:30;9.77;;;6.03;;
20709;SDS011;10516;51.518;9.864;2022-11-25T07:28:58;12.20;;;5.60;;
20709;SDS011;10516;51.518;9.864;2022-11-25T07:31:26;9.88;;;5.35;;
20709;SDS011;10516;51.518;9.864;2022-11-25T07:33:55;21.45;;;5.93;;
20709;SDS011;10516;51.518;9.864;2022-11-25T07:36:22;15.30;;;5.65;;
20709;SDS011;10516;51.518;9.864;2022-11-25T07:38:48;13.65;;;6.18;;
20709;SDS011;10516;51.518;9.864;2022-11-25T07:41:14;14.85;;;6.20;;
20709;SDS011;10516;51.518;9.864;2022-11-25T07:43:52;12.30;;;5.35;;
20709;SDS011;10516;51.518;9.864;2022-11-25T07:46:24;15.40;;;6.72;;
20709;SDS011;10516;51.518;9.864;2022-11-25T07:48:51;10.80;;;5.80;;
20709;SDS011;10516;51.518;9.864;2022-11-25T07:51:26;8.98;;;4.82;;
20709;SDS011;10516;51.518;9.864;2022-11-25T07:53:54;13.37;;;6.07;;
20709;SDS011;10516;51.518;9.864;2022-11-25T07:56:21;13.95;;;5.35;;
20709;SDS011;10516;51.518;9.864;2022-11-25T07:58:46;11.10;;;5.78;;
20709;SDS011;10516;51.518;9.864;2022-11-25T08:01:12;13.40;;;5.97;;
20709;SDS011;10516;51.518;9.864;2022-11-25T08:03:39;13.38;;;5.45;;
20709;SDS011;10516;51.518;9.864;2022-11-25T08:06:07;11.70;;;6.00;;
20709;SDS011;10516;51.518;9.864;2022-11-25T08:08:38;8.00;;;4.95;;
20709;SDS011;10516;51.518;9.864;2022-11-25T08:11:09;14.32;;;5.88;;
20709;SDS011;10516;51.518;9.864;2022-11-25T08:13:37;9.57;;;5.45;;
20709;SDS011;10516;51.518;9.864;2022-11-25T08:16:03;7.55;;;4.95;;
20709;SDS011;10516;51.518;9.864;2022-11-25T08:18:29;14.02;;;6.25;;
20709;SDS011;10516;51.518;9.864;2022-11-25T08:21:04;9.95;;;6.03;;
20709;SDS011;10516;51.518;9.864;2022-11-25T08:23:33;13.55;;;5.88;;
20709;SDS011;10516;51.518;9.864;2022-11-25T08:26:05;9.32;;;5.05;;
20709;SDS011;10516;51.518;9.864;2022-11-25T08:28:32;9.77;;;5.22;;
20709;SDS011;10516;51.518;9.864;2022-11-25T08:31:08;7.65;;;4.80;;
20709;SDS011;10516;51.518;9.864;2022-11-25T08:33:36;17.52;;;5.47;;
20709;SDS011;10516;51.518;9.864;2022-11-25T08:36:02;12.77;;;5.95;;
20709;SDS011;10516;51.518;9.864;2022-11-25T08:38:28;9.95;;;5.97;;
20709;SDS011;10516;51.518;9.864;2022-11-25T08:40:53;15.07;;;5.45;;
20709;SDS011;10516;51.518;9.864;2022-11-25T08:43:19;12.75;;;5.13;;
20709;SDS011;10516;51.518;9.864;2022-11-25T08:45:48;8.90;;;5.10;;
20709;SDS011;10516;51.518;9.864;2022-11-25T08:48:15;13.75;;;5.43;;
20709;SDS011;10516;51.518;9.864;2022-11-25T08:50:44;10.68;;;5.85;;
20709;SDS011;10516;51.518;9.864;2022-11-25T08:53:12;12.57;;;6.10;;
20709;SDS011;10516;51.518;9.864;2022-11-25T08:55:38;9.63;;;5.55;;
20709;SDS011;10516;51.518;9.864;2022-11-25T08:58:03;14.80;;;7.00;;
20709;SDS011;10516;51.518;9.864;2022-11-25T09:00:29;11.40;;;5.82;;
20709;SDS011;10516;51.518;9.864;2022-11-25T09:02:54;14.10;;;5.55;;
20709;SDS011;10516;51.518;9.864;2022-11-25T09:05:20;11.45;;;4.95;;
20709;SDS011;10516;51.518;9.864;2022-11-25T09:07:45;7.72;;;5.28;;
20709;SDS011;10516;51.518;9.864;2022-11-25T09:10:13;10.40;;;5.75;;
20709;SDS011;10516;51.518;9.864;2022-11-25T09:12:39;20.85;;;8.77;;
20709;SDS011;10516;51.518;9.864;2022-11-25T09:15:05;11.43;;;4.95;;
20709;SDS011;10516;51.518;9.864;2022-11-25T09:17:31;9.65;;;5.47;;
20709;SDS011;10516;51.518;9.864;2022-11-25T09:19:59;12.13;;;7.22;;
20709;SDS011;10516;51.518;9.864;2022-11-25T09:22:24;13.90;;;6.78;;
20709;SDS011;10516;51.518;9.864;2022-11-25T09:24:50;10.07;;;4.78;;
20709;SDS011;10516;51.518;9.864;2022-11-25T09:27:15;9.48;;;5.50;;
20709;SDS011;10516;51.518;9.864;2022-11-25T09:29:40;11.00;;;4.40;;
20709;SDS011;10516;51.518;9.864;2022-11-25T09:32:06;6.13;;;4.82;;
20709;SDS011;10516;51.518;9.864;2022-11-25T09:34:31;10.68;;;5.05;;
20709;SDS011;10516;51.518;9.864;2022-11-25T09:36:56;9.70;;;4.72;;
20709;SDS011;10516;51.518;9.864;2022-11-25T09:39:22;11.35;;;6.80;;
20709;SDS011;10516;51.518;9.864;2022-11-25T10:02:00;11.10;;;6.03;;
20709;SDS011;10516;51.518;9.864;2022-11-25T10:04:39;10.15;;;4.43;;
20709;SDS011;10516;51.518;9.864;2022-11-25T10:07:16;12.75;;;4.03;;
20709;SDS011;10516;51.518;9.864;2022-11-25T10:09:45;9.95;;;4.38;;
20709;SDS011;10516;51.518;9.864;2022-11-25T10:14:48;10.85;;;4.22;;
20709;SDS011;10516;51.518;9.864;2022-11-25T10:17:29;13.35;;;5.57;;
20709;SDS011;10516;51.518;9.864;2022-11-25T10:20:06;12.27;;;5.53;;
20709;SDS011;10516;51.518;9.864;2022-11-25T10:22:42;5.32;;;4.20;;
20709;SDS011;10516;51.518;9.864;2022-11-25T10:25:22;7.03;;;4.28;;
20709;SDS011;10516;51.518;9.864;2022-11-25T10:27:58;13.23;;;4.90;;
20709;SDS011;10516;51.518;9.864;2022-11-25T10:30:34;14.95;;;4.20;;
20709;SDS011;10516;51.518;9.864;2022-11-25T10:36:50;9.38;;;4.20;;
20709;SDS011;10516;51.518;9.864;2022-11-25T10:41:40;9.20;;;4.75;;
20709;SDS011;10516;51.518;9.864;2022-11-25T10:44:22;16.65;;;6.03;;
20709;SDS011;10516;51.518;9.864;2022-11-25T10:46:54;11.50;;;6.03;;
20709;SDS011;10516;51.518;9.864;2022-11-25T10:49:45;8.57;;;4.38;;
20709;SDS011;10516;51.518;9.864;2022-11-25T10:52:11;9.35;;;5.15;;
20709;SDS011;10516;51.518;9.864;2022-11-25T10:54:38;10.85;;;4.85;;
20709;SDS011;10516;51.518;9.864;2022-11-25T10:57:15;11.13;;;4.80;;
20709;SDS011;10516;51.518;9.864;2022-11-25T10:59:44;13.07;;;4.60;;
20709;SDS011;10516;51.518;9.864;2022-11-25T11:02:27;14.13;;;5.07;;
20709;SDS011;10516;51.518;9.864;2022-11-25T11:07:33;10.93;;;4.72;;
20709;SDS011;10516;51.518;9.864;2022-11-25T11:10:20;31.98;;;15.70;;
20709;SDS011;10516;51.518;9.864;2022-11-25T11:12:57;13.10;;;5.07;;
20709;SDS011;10516;51.518;9.864;2022-11-25T11:15:45;17.65;;;4.85;;
20709;SDS011;10516;51.518;9.864;2022-11-25T11:18:25;12.80;;;4.40;;
20709;SDS011;10516;51.518;9.864;2022-11-25T11:21:03;10.50;;;4.72;;
20709;SDS011;10516;51.518;9.864;2022-11-25T11:23:31;10.02;;;4.38;;
20709;SDS011;10516;51.518;9.864;2022-11-25T11:26:20;11.43;;;4.47;;
20709;SDS011;10516;51.518;9.864;2022-11-25T11:28:55;9.02;;;4.10;;
20709;SDS011;10516;51.518;9.864;2022-11-25T11:31:32;21.92;;;6.68;;
20709;SDS011;10516;51.518;9.864;2022-11-25T11:50:26;24.52;;;8.48;;
20709;SDS011;10516;51.518;9.864;2022-11-25T11:56:09;12.52;;;8.02;;
20709;SDS011;10516;51.518;9.864;2022-11-25T12:04:25;9.05;;;4.95;;
20709;SDS011;10516;51.518;9.864;2022-11-25T12:09:52;12.00;;;4.93;;
20709;SDS011;10516;51.518;9.864;2022-11-25T12:12:22;7.50;;;3.88;;
20709;SDS011;10516;51.518;9.864;2022-11-25T12:15:15;6.75;;;3.78;;
20709;SDS011;10516;51.518;9.864;2022-11-25T12:17:50;8.93;;;4.88;;
20709;SDS011;10516;51.518;9.864;2022-11-25T12:20:43;11.10;;;4.43;;
20709;SDS011;10516;51.518;9.864;2022-11-25T12:23:27;10.18;;;5.70;;
20709;SDS011;10516;51.518;9.864;2022-11-25T12:25:56;11.73;;;4.97;;
20709;SDS011;10516;51.518;9.864;2022-11-25T12:28:32;7.05;;;4.40;;
20709;SDS011;10516;51.518;9.864;2022-11-25T12:31:14;17.23;;;5.03;;
20709;SDS011;10516;51.518;9.864;2022-11-25T12:36:34;12.60;;;5.00;;
20709;SDS011;10516;51.518;9.864;2022-11-25T12:41:58;7.63;;;4.47;;
20709;SDS011;10516;51.518;9.864;2022-11-25T12:44:33;13.45;;;5.43;;
20709;SDS011;10516;51.518;9.864;2022-11-25T12:47:08;21.30;;;7.63;;
20709;SDS011;10516;51.518;9.864;2022-11-25T12:49:40;10.70;;;5.25;;
20709;SDS011;10516;51.518;9.864;2022-11-25T13:16:59;12.02;;;5.55;;
20709;SDS011;10516;51.518;9.864;2022-11-25T13:19:25;13.30;;;6.03;;
20709;SDS011;10516;51.518;9.864;2022-11-25T13:22:00;16.15;;;6.00;;
20709;SDS011;10516;51.518;9.864;2022-11-25T13:27:02;17.80;;;6.68;;
20709;SDS011;10516;51.518;9.864;2022-11-25T13:32:11;21.40;;;7.07;;
20709;SDS011;10516;51.518;9.864;2022-11-25T13:34:49;14.73;;;6.10;;
20709;SDS011;10516;51.518;9.864;2022-11-25T13:37:35;12.00;;;7.10;;
20709;SDS011;10516;51.518;9.864;2022-11-25T13:43:18;14.48;;;6.40;;
20709;SDS011;10516;51.518;9.864;2022-11-25T13:45:45;12.27;;;6.18;;
20709;SDS011;10516;51.518;9.864;2022-11-25T13:50:39;11.88;;;6.28;;
20709;SDS011;10516;51.518;9.864;2022-11-25T13:53:05;10.95;;;6.68;;
20709;SDS011;10516;51.518;9.864;2022-11-25T13:55:43;9.25;;;6.57;;
20709;SDS011;10516;51.518;9.864;2022-11-25T14:00:41;13.75;;;7.97;;
20709;SDS011;10516;51.518;9.864;2022-11-25T14:05:47;16.75;;;7.90;;
20709;SDS011;10516;51.518;9.864;2022-11-25T14:22:23;18.25;;;8.52;;
20709;SDS011;10516;51.518;9.864;2022-11-25T14:27:46;22.52;;;9.20;;
20709;SDS011;10516;51.518;9.864;2022-11-25T14:30:16;19.98;;;9.30;;
20709;SDS011;10516;51.518;9.864;2022-11-25T14:32:55;10.40;;;8.07;;
20709;SDS011;10516;51.518;9.864;2022-11-25T14:35:31;20.27;;;9.90;;
20709;SDS011;10516;51.518;9.864;2022-11-25T14:41:10;16.30;;;9.55;;
20709;SDS011;10516;51.518;9.864;2022-11-25T14:43:43;16.58;;;10.07;;
20709;SDS011;10516;51.518;9.864;2022-11-25T14:46:18;16.92;;;9.98;;
20709;SDS011;10516;51.518;9.864;2022-11-25T14:48:51;17.80;;;10.93;;
20709;SDS011;10516;51.518;9.864;2022-11-25T14:51:21;16.77;;;10.30;;
20709;SDS011;10516;51.518;9.864;2022-11-25T14:53:49;15.20;;;10.90;;
20709;SDS011;10516;51.518;9.864;2022-11-25T14:56:20;21.15;;;13.00;;
20709;SDS011;10516;51.518;9.864;2022-11-25T14:58:53;33.80;;;18.92;;
20709;SDS011;10516;51.518;9.864;2022-11-25T15:01:29;24.05;;;15.07;;
20709;SDS011;10516;51.518;9.864;2022-11-25T15:04:11;26.20;;;17.23;;
20709;SDS011;10516;51.518;9.864;2022-11-25T15:06:39;14.10;;;12.30;;
20709;SDS011;10516;51.518;9.864;2022-11-25T15:09:31;23.33;;;13.05;;
20709;SDS011;10516;51.518;9.864;2022-11-25T15:12:06;20.33;;;10.85;;
20709;SDS011;10516;51.518;9.864;2022-11-25T15:17:06;19.30;;;13.13;;
20709;SDS011;10516;51.518;9.864;2022-11-25T15:19:33;20.38;;;11.85;;
20709;SDS011;10516;51.518;9.864;2022-11-25T15:22:04;19.50;;;11.88;;
20709;SDS011;10516;51.518;9.864;2022-11-25T15:24:31;30.30;;;14.75;;
20709;SDS011;10516;51.518;9.864;2022-11-25T15:27:09;20.95;;;13.57;;
20709;SDS011;10516;51.518;9.864;2022-11-25T15:29:39;20.15;;;14.05;;
20709;SDS011;10516;51.518;9.864;2022-11-25T15:32:07;21.15;;;12.45;;
20709;SDS011;10516;51.518;9.864;2022-11-25T15:34:38;17.23;;;12.25;;
20709;SDS011;10516;51.518;9.864;2022-11-25T15:37:04;21.45;;;13.35;;
20709;SDS011;10516;51.518;9.864;2022-11-25T15:39:30;28.63;;;15.60;;
20709;SDS011;10516;51.518;9.864;2022-11-25T15:42:04;27.27;;;15.95;;
20709;SDS011;10516;51.518;9.864;2022-11-25T15:44:33;23.80;;;14.18;;
20709;SDS011;10516;51.518;9.864;2022-11-25T15:47:03;27.05;;;13.80;;
20709;SDS011;10516;51.518;9.864;2022-11-25T15:49:37;23.95;;;15.15;;
20709;SDS011;10516;51.518;9.864;2022-11-25T15:52:04;23.33;;;14.55;;
20709;SDS011;10516;51.518;9.864;2022-11-25T15:54:41;25.52;;;15.00;;
20709;SDS011;10516;51.518;9.864;2022-11-25T15:59:50;29.02;;;18.45;;
20709;SDS011;10516;51.518;9.864;2022-11-25T16:02:34;24.38;;;16.00;;
20709;SDS011;10516;51.518;9.864;2022-11-25T16:07:54;25.25;;;16.60;;
20709;SDS011;10516;51.518;9.864;2022-11-25T16:10:23;23.60;;;16.98;;
20709;SDS011;10516;51.518;9.864;2022-11-25T16:13:20;23.13;;;16.20;;
20709;SDS011;10516;51.518;9.864;2022-11-25T16:21:20;31.65;;;23.38;;
20709;SDS011;10516;51.518;9.864;2022-11-25T16:23:49;27.15;;;20.58;;
20709;SDS011;10516;51.518;9.864;2022-11-25T16:26:28;35.88;;;22.17;;
20709;SDS011;10516;51.518;9.864;2022-11-25T16:28:57;31.25;;;21.67;;
20709;SDS011;10516;51.518;9.864;2022-11-25T16:31:25;37.97;;;21.38;;
20709;SDS011;10516;51.518;9.864;2022-11-25T16:34:05;36.28;;;21.10;;
20709;SDS011;10516;51.518;9.864;2022-11-25T16:36:37;26.05;;;18.10;;
20709;SDS011;10516;51.518;9.864;2022-11-25T16:39:03;34.45;;;20.67;;
20709;SDS011;10516;51.518;9.864;2022-11-25T16:41:28;34.78;;;19.63;;
20709;SDS011;10516;51.518;9.864;2022-11-25T16:43:54;26.27;;;18.40;;
20709;SDS011;10516;51.518;9.864;2022-11-25T16:46:19;44.63;;;21.70;;
20709;SDS011;10516;51.518;9.864;2022-11-25T16:48:45;35.72;;;22.08;;
20709;SDS011;10516;51.518;9.864;2022-11-25T16:51:15;33.33;;;21.60;;
20709;SDS011;10516;51.518;9.864;2022-11-25T16:53:42;32.42;;;19.13;;
20709;SDS011;10516;51.518;9.864;2022-11-25T16:56:10;31.55;;;17.90;;
20709;SDS011;10516;51.518;9.864;2022-11-25T16:58:57;25.40;;;16.20;;
20709;SDS011;10516;51.518;9.864;2022-11-25T17:01:23;30.33;;;18.52;;
20709;SDS011;10516;51.518;9.864;2022-11-25T17:03:51;32.63;;;17.48;;
20709;SDS011;10516;51.518;9.864;2022-11-25T17:06:17;25.25;;;17.95;;
20709;SDS011;10516;51.518;9.864;2022-11-25T17:08:45;30.10;;;17.95;;
20709;SDS011;10516;51.518;9.864;2022-11-25T17:11:14;30.13;;;17.08;;